createdAt,value
2022-12-28T00:01:14.022Z,2.83
2022-12-28T00:03:40.674Z,3.10
2022-12-28T00:06:07.349Z,2.43
2022-12-28T00:08:33.968Z,2.80
2022-12-28T00:11:07.865Z,2.70
2022-12-28T00:13:37.168Z,2.80
2022-12-28T00:16:25.337Z,2.63
2022-12-28T00:18:52.001Z,2.97
2022-12-28T00:21:18.830Z,3.20
2022-12-28T00:23:45.342Z,2.67
2022-12-28T00:26:12.986Z,3.00
2022-12-28T00:28:40.063Z,2.73
2022-12-28T00:31:06.589Z,3.03
2022-12-28T00:33:33.150Z,3.13
2022-12-28T00:36:00.648Z,2.87
2022-12-28T00:38:28.104Z,3.00
2022-12-28T00:40:54.674Z,3.07
2022-12-28T00:43:21.237Z,2.90
2022-12-28T00:45:48.022Z,3.27
2022-12-28T00:48:15.072Z,2.90
2022-12-28T00:50:42.034Z,3.23
2022-12-28T00:53:08.652Z,2.93
2022-12-28T00:55:35.354Z,2.80
2022-12-28T00:58:02.238Z,2.90
2022-12-28T01:00:28.972Z,3.13
2022-12-28T01:02:55.722Z,3.00
2022-12-28T01:05:22.759Z,3.13
2022-12-28T01:07:49.497Z,3.00
2022-12-28T01:10:16.181Z,3.40
2022-12-28T01:12:42.779Z,2.87
2022-12-28T01:15:10.308Z,3.00
2022-12-28T01:17:36.878Z,3.13
2022-12-28T01:20:04.211Z,3.40
2022-12-28T01:22:30.994Z,2.93
2022-12-28T01:24:57.571Z,2.93
2022-12-28T01:27:24.103Z,3.50
2022-12-28T01:29:50.706Z,2.87
2022-12-28T01:32:17.240Z,3.20
2022-12-28T01:34:43.745Z,3.53
2022-12-28T01:37:10.354Z,3.27
2022-12-28T01:39:37.015Z,3.07
2022-12-28T01:42:03.564Z,3.00
2022-12-28T01:44:44.329Z,3.27
2022-12-28T01:47:14.189Z,3.27
2022-12-28T01:49:43.992Z,3.57
2022-12-28T01:52:19.864Z,3.47
2022-12-28T01:54:56.121Z,3.20
2022-12-28T01:57:25.127Z,3.23
2022-12-28T02:00:09.355Z,3.60
2022-12-28T02:02:36.330Z,3.30
2022-12-28T02:05:03.204Z,3.37
2022-12-28T02:07:57.950Z,3.17
2022-12-28T02:10:41.445Z,3.40
2022-12-28T02:13:11.294Z,3.80
2022-12-28T02:15:37.913Z,3.30
2022-12-28T02:18:04.642Z,3.30
2022-12-28T02:20:50.120Z,3.70
2022-12-28T02:23:44.896Z,3.50
2022-12-28T02:26:37.839Z,3.60
2022-12-28T02:29:31.490Z,3.60
2022-12-28T02:32:28.772Z,3.60
2022-12-28T02:35:18.630Z,3.37
2022-12-28T02:37:52.060Z,3.40
2022-12-28T02:40:26.852Z,3.50
2022-12-28T02:42:54.419Z,3.63
2022-12-28T02:45:50.503Z,3.33
2022-12-28T02:48:35.798Z,3.43
2022-12-28T02:51:14.624Z,3.50
2022-12-28T02:53:44.191Z,3.43
2022-12-28T02:56:19.749Z,3.50
2022-12-28T02:59:07.718Z,3.17
2022-12-28T03:01:49.645Z,3.60
2022-12-28T03:04:28.071Z,3.30
2022-12-28T03:07:22.552Z,3.53
2022-12-28T03:10:07.859Z,3.40
2022-12-28T03:12:40.757Z,3.07
2022-12-28T03:15:15.488Z,3.87
2022-12-28T03:18:01.207Z,3.47
2022-12-28T03:20:48.732Z,3.40
2022-12-28T03:23:35.675Z,3.50
2022-12-28T03:26:21.597Z,3.43
2022-12-28T03:29:06.712Z,3.60
2022-12-28T03:31:33.328Z,3.10
2022-12-28T03:34:08.743Z,3.50
2022-12-28T03:36:35.179Z,3.50
2022-12-28T03:39:25.130Z,3.67
2022-12-28T03:42:25.009Z,3.37
2022-12-28T03:44:55.127Z,3.20
2022-12-28T03:47:21.729Z,3.40
2022-12-28T03:49:48.253Z,3.50
2022-12-28T03:52:14.825Z,3.87
2022-12-28T03:54:41.395Z,3.30
2022-12-28T03:57:08.139Z,3.40
2022-12-28T03:59:34.816Z,3.40
2022-12-28T04:02:01.542Z,3.30
2022-12-28T04:04:28.259Z,3.53
2022-12-28T04:06:54.790Z,3.20
2022-12-28T04:09:22.491Z,3.37
2022-12-28T04:11:49.032Z,3.53
2022-12-28T04:14:15.726Z,3.67
2022-12-28T04:16:42.296Z,3.47
2022-12-28T04:19:10.435Z,3.10
2022-12-28T04:21:37.131Z,3.40
2022-12-28T04:24:03.917Z,3.47
2022-12-28T04:26:30.496Z,3.50
2022-12-28T04:29:02.066Z,3.60
2022-12-28T04:31:29.274Z,3.23
2022-12-28T04:33:58.928Z,3.53
2022-12-28T04:36:25.672Z,3.30
2022-12-28T04:38:52.219Z,3.23
2022-12-28T04:41:18.910Z,3.30
2022-12-28T04:43:45.479Z,3.30
2022-12-28T04:46:18.521Z,3.80
2022-12-28T04:48:55.541Z,3.20
2022-12-28T04:51:26.381Z,3.13
2022-12-28T04:53:53.229Z,4.03
2022-12-28T04:56:20.462Z,2.97
2022-12-28T04:58:47.223Z,3.20
2022-12-28T05:01:16.047Z,3.17
2022-12-28T05:03:48.197Z,3.50
2022-12-28T05:06:20.560Z,3.40
2022-12-28T05:08:47.489Z,3.27
2022-12-28T05:11:20.349Z,3.33
2022-12-28T05:13:49.506Z,3.47
2022-12-28T05:16:25.503Z,3.70
2022-12-28T05:18:56.820Z,3.20
2022-12-28T05:21:29.270Z,3.17
2022-12-28T05:23:58.750Z,3.20
2022-12-28T05:26:29.351Z,3.67
2022-12-28T05:28:56.480Z,3.80
2022-12-28T05:31:43.708Z,3.23
2022-12-28T05:34:10.383Z,3.67
2022-12-28T05:36:39.943Z,3.57
2022-12-28T05:39:09.735Z,3.50
2022-12-28T05:41:36.473Z,3.17
2022-12-28T05:44:03.462Z,3.50
2022-12-28T05:46:31.445Z,3.60
2022-12-28T05:48:58.257Z,3.40
2022-12-28T05:51:34.032Z,3.20
2022-12-28T05:54:01.133Z,3.33
2022-12-28T05:56:30.857Z,3.17
2022-12-28T05:58:58.240Z,3.50
2022-12-28T06:01:27.736Z,3.50
2022-12-28T06:04:04.262Z,3.43
2022-12-28T06:06:31.304Z,3.47
2022-12-28T06:09:00.062Z,3.30
2022-12-28T06:11:27.385Z,3.20
2022-12-28T06:13:54.037Z,3.37
2022-12-28T06:16:23.760Z,2.83
2022-12-28T06:18:51.884Z,3.37
2022-12-28T06:21:20.863Z,3.40
2022-12-28T06:23:47.668Z,3.73
2022-12-28T06:26:16.380Z,3.60
2022-12-28T06:28:43.533Z,3.60
2022-12-28T06:31:23.590Z,3.47
2022-12-28T06:33:57.245Z,3.30
2022-12-28T06:36:28.153Z,3.43
2022-12-28T06:38:55.795Z,3.00
2022-12-28T06:41:22.497Z,3.33
2022-12-28T06:43:49.385Z,3.40
2022-12-28T06:46:16.898Z,3.20
2022-12-28T06:48:43.766Z,3.20
2022-12-28T06:51:11.795Z,3.20
2022-12-28T06:53:38.426Z,3.63
2022-12-28T06:56:14.238Z,3.03
2022-12-28T06:58:41.087Z,3.33
2022-12-28T07:01:28.816Z,3.93
2022-12-28T07:03:56.567Z,3.03
2022-12-28T07:06:24.589Z,3.33
2022-12-28T07:08:51.281Z,3.30
2022-12-28T07:11:21.887Z,3.27
2022-12-28T07:13:48.994Z,2.90
2022-12-28T07:16:22.229Z,3.37
2022-12-28T07:18:48.895Z,3.53
2022-12-28T07:21:16.626Z,3.30
2022-12-28T07:23:43.167Z,3.17
2022-12-28T07:26:17.468Z,3.27
2022-12-28T07:28:45.210Z,3.50
2022-12-28T07:31:16.860Z,3.10
2022-12-28T07:33:43.872Z,3.00
2022-12-28T07:36:13.067Z,3.43
2022-12-28T07:38:39.722Z,2.93
2022-12-28T07:41:08.193Z,3.33
2022-12-28T07:43:34.753Z,3.17
2022-12-28T07:46:05.914Z,3.60
2022-12-28T07:48:32.894Z,2.90
2022-12-28T07:51:06.794Z,3.13
2022-12-28T07:53:33.309Z,3.40
2022-12-28T07:56:00.167Z,3.03
2022-12-28T07:58:26.689Z,3.23
2022-12-28T08:00:53.593Z,3.77
2022-12-28T08:03:20.197Z,4.30
2022-12-28T08:05:46.727Z,5.07
2022-12-28T08:08:13.337Z,5.60
2022-12-28T08:10:39.833Z,5.17
2022-12-28T08:13:06.825Z,6.20
2022-12-28T08:15:33.306Z,6.10
2022-12-28T08:17:59.911Z,6.87
2022-12-28T08:20:26.450Z,7.20
2022-12-28T08:22:53.359Z,6.50
2022-12-28T08:25:19.844Z,6.67
2022-12-28T08:27:46.317Z,6.40
2022-12-28T08:30:13.083Z,6.47
2022-12-28T08:32:39.559Z,6.23
2022-12-28T08:35:06.309Z,6.57
2022-12-28T08:37:32.821Z,6.30
2022-12-28T08:39:59.353Z,6.10
2022-12-28T08:42:25.905Z,5.93
2022-12-28T08:44:52.403Z,5.57
2022-12-28T08:47:18.896Z,5.87
2022-12-28T08:49:45.392Z,5.60
2022-12-28T08:52:11.988Z,5.33
2022-12-28T08:54:38.553Z,5.53
2022-12-28T08:57:05.084Z,4.97
2022-12-28T08:59:31.608Z,5.30
2022-12-28T09:01:58.245Z,5.30
2022-12-28T09:04:24.926Z,4.60
2022-12-28T09:06:51.519Z,5.30
2022-12-28T09:09:19.479Z,5.30
2022-12-28T09:11:46.155Z,4.67
2022-12-28T09:14:20.424Z,4.83
2022-12-28T09:16:49.600Z,4.93
2022-12-28T09:19:16.160Z,4.83
2022-12-28T09:21:42.886Z,4.40
2022-12-28T09:24:09.524Z,4.77
2022-12-28T09:26:37.172Z,4.97
2022-12-28T09:29:05.247Z,4.60
2022-12-28T09:31:32.499Z,4.33
2022-12-28T09:36:49.129Z,4.30
2022-12-28T09:39:19.931Z,4.50
2022-12-28T09:41:50.301Z,4.43
2022-12-28T09:44:41.672Z,4.60
2022-12-28T09:47:08.072Z,4.50
2022-12-28T09:49:44.729Z,4.43
2022-12-28T09:52:14.252Z,3.97
2022-12-28T09:54:41.011Z,4.63
2022-12-28T09:57:12.772Z,4.20
2022-12-28T09:59:39.366Z,3.83
2022-12-28T10:02:17.213Z,4.00
2022-12-28T10:04:49.113Z,4.20
2022-12-28T10:07:16.061Z,4.00
2022-12-28T10:09:42.541Z,4.10
2022-12-28T10:12:16.776Z,3.67
2022-12-28T10:14:45.624Z,3.67
2022-12-28T10:17:13.114Z,3.80
2022-12-28T10:19:39.633Z,4.07
2022-12-28T10:22:07.690Z,3.73
2022-12-28T10:24:34.208Z,4.57
2022-12-28T10:27:02.134Z,3.53
2022-12-28T10:29:30.801Z,3.83
2022-12-28T10:32:09.346Z,3.93
2022-12-28T10:34:36.509Z,4.30
2022-12-28T10:37:14.031Z,4.57
2022-12-28T10:39:50.176Z,4.13
2022-12-28T10:42:27.816Z,3.97
2022-12-28T10:44:55.962Z,3.70
2022-12-28T10:47:28.295Z,4.03
2022-12-28T10:52:41.448Z,3.80
2022-12-28T10:55:34.371Z,3.43
2022-12-28T10:58:30.056Z,3.70
2022-12-28T11:01:07.099Z,3.53
2022-12-28T11:03:36.886Z,3.77
2022-12-28T11:06:26.340Z,3.57
2022-12-28T11:09:07.137Z,3.90
2022-12-28T11:11:33.782Z,3.63
2022-12-28T11:14:06.408Z,4.90
2022-12-28T11:16:36.552Z,8.50
2022-12-28T11:19:03.574Z,10.37
2022-12-28T11:21:30.704Z,12.83
2022-12-28T11:23:57.230Z,14.70
2022-12-28T11:26:23.870Z,13.90
2022-12-28T11:28:51.817Z,13.80
2022-12-28T11:31:33.448Z,14.37
2022-12-28T11:34:03.508Z,14.63
2022-12-28T11:36:30.157Z,15.80
2022-12-28T11:38:56.779Z,15.07
2022-12-28T11:41:33.907Z,15.63
2022-12-28T11:44:05.021Z,14.93
2022-12-28T11:46:31.463Z,14.80
2022-12-28T11:49:05.482Z,13.90
2022-12-28T11:51:33.346Z,14.53
2022-12-28T11:54:00.064Z,15.13
2022-12-28T11:56:45.138Z,14.53
2022-12-28T11:59:29.245Z,14.20
2022-12-28T12:02:20.674Z,14.83
2022-12-28T12:04:47.443Z,13.43
2022-12-28T12:07:19.989Z,14.13
2022-12-28T12:20:43.660Z,13.93
2022-12-28T12:23:18.607Z,15.23
2022-12-28T12:25:47.583Z,14.27
2022-12-28T12:28:34.431Z,13.83
2022-12-28T12:31:02.261Z,14.70
2022-12-28T12:33:32.068Z,13.67
2022-12-28T12:36:11.297Z,14.00
2022-12-28T12:38:40.945Z,14.53
2022-12-28T12:41:30.692Z,15.67
2022-12-28T12:44:09.466Z,13.60
2022-12-28T12:46:44.949Z,14.43
2022-12-28T12:49:53.089Z,14.27
2022-12-28T12:52:54.372Z,14.03
2022-12-28T12:55:43.823Z,12.70
2022-12-28T12:58:48.252Z,8.90
2022-12-28T13:01:26.821Z,6.40
2022-12-28T13:03:53.998Z,6.10
2022-12-28T13:06:23.259Z,5.67
2022-12-28T13:08:50.871Z,6.20
2022-12-28T13:11:17.782Z,6.10
2022-12-28T13:13:46.023Z,5.70
2022-12-28T13:16:26.463Z,5.53
2022-12-28T13:18:57.699Z,5.80
2022-12-28T13:21:26.097Z,5.63
2022-12-28T13:23:52.838Z,5.30
2022-12-28T13:26:24.915Z,5.40
2022-12-28T13:28:55.995Z,5.73
2022-12-28T13:31:28.865Z,5.10
2022-12-28T13:34:00.192Z,4.97
2022-12-28T13:36:26.842Z,5.03
2022-12-28T13:39:11.112Z,5.67
2022-12-28T13:41:37.640Z,5.03
2022-12-28T13:44:19.014Z,5.10
2022-12-28T13:46:50.291Z,4.80
2022-12-28T13:49:17.675Z,4.63
2022-12-28T13:51:48.363Z,5.07
2022-12-28T13:54:18.006Z,5.17
2022-12-28T13:56:44.609Z,4.47
2022-12-28T13:59:16.175Z,4.53
2022-12-28T14:01:44.319Z,4.73
2022-12-28T14:04:51.120Z,4.90
2022-12-28T14:07:00.111Z,5.10
2022-12-28T14:09:26.618Z,5.00
2022-12-28T14:11:53.165Z,4.93
2022-12-28T14:14:19.681Z,4.53
2022-12-28T14:16:46.214Z,4.50
2022-12-28T14:19:12.780Z,4.50
2022-12-28T14:21:45.018Z,4.27
2022-12-28T14:24:13.494Z,4.47
2022-12-28T14:26:45.835Z,4.53
2022-12-28T14:29:14.246Z,4.40
2022-12-28T14:31:40.979Z,5.00
2022-12-28T14:34:07.610Z,4.33
2022-12-28T14:36:40.596Z,4.50
2022-12-28T14:39:07.730Z,4.67
2022-12-28T14:41:39.315Z,4.27
2022-12-28T14:44:07.605Z,3.73
2022-12-28T14:46:36.009Z,3.50
2022-12-28T14:49:24.721Z,3.67
2022-12-28T14:51:51.289Z,4.10
2022-12-28T14:54:20.852Z,3.80
2022-12-28T14:56:54.107Z,3.73
2022-12-28T14:59:30.251Z,3.87
2022-12-28T15:01:57.031Z,3.80
2022-12-28T15:04:39.871Z,3.70
2022-12-28T15:07:07.869Z,4.17
2022-12-28T15:09:34.522Z,3.90
2022-12-28T15:12:21.423Z,4.10
2022-12-28T15:14:48.814Z,4.00
2022-12-28T15:17:15.566Z,4.07
2022-12-28T15:19:42.667Z,3.47
2022-12-28T15:22:09.303Z,3.63
2022-12-28T15:24:35.866Z,4.00
2022-12-28T15:27:03.061Z,3.87
2022-12-28T15:30:03.857Z,3.63
2022-12-28T15:32:16.383Z,3.77
2022-12-28T15:34:42.936Z,4.10
2022-12-28T15:37:09.527Z,4.27
2022-12-28T15:39:36.315Z,3.60
2022-12-28T15:42:02.905Z,3.70
2022-12-28T15:44:29.473Z,3.23
2022-12-28T15:46:56.164Z,4.13
2022-12-28T15:49:22.895Z,3.43
2022-12-28T15:51:49.488Z,4.50
2022-12-28T15:54:19.185Z,4.20
2022-12-28T15:56:54.982Z,3.97
2022-12-28T15:59:21.583Z,4.27
2022-12-28T16:01:48.617Z,3.83
2022-12-28T16:04:15.490Z,4.33
2022-12-28T16:06:45.034Z,3.53
2022-12-28T16:09:12.377Z,4.43
2022-12-28T16:11:38.951Z,4.30
2022-12-28T16:14:06.274Z,4.10
2022-12-28T16:16:37.514Z,3.90
2022-12-28T16:19:05.875Z,4.10
2022-12-28T16:21:32.528Z,4.00
2022-12-28T16:23:59.795Z,4.20
2022-12-28T16:26:26.332Z,3.90
2022-12-28T16:28:52.963Z,3.80
2022-12-28T16:31:49.048Z,3.83
2022-12-28T16:34:16.971Z,3.87
2022-12-28T16:36:45.478Z,3.83
2022-12-28T16:39:13.349Z,3.93
2022-12-28T16:41:39.933Z,4.00
2022-12-28T16:44:17.608Z,4.07
2022-12-28T16:46:44.279Z,3.60
2022-12-28T16:49:11.470Z,3.40
2022-12-28T16:51:39.315Z,3.87
2022-12-28T16:54:06.505Z,3.70
2022-12-28T16:56:33.283Z,3.60
2022-12-28T16:59:00.602Z,3.60
2022-12-28T17:01:27.475Z,3.87
2022-12-28T17:03:57.310Z,3.30
2022-12-28T17:06:26.766Z,4.00
2022-12-28T17:08:53.317Z,3.73
2022-12-28T17:11:19.883Z,3.53
2022-12-28T17:13:46.449Z,3.60
2022-12-28T17:16:13.072Z,3.83
2022-12-28T17:18:39.670Z,3.87
2022-12-28T17:21:07.312Z,3.67
2022-12-28T17:23:34.051Z,4.00
2022-12-28T17:26:00.653Z,3.53
2022-12-28T17:28:27.239Z,3.80
2022-12-28T17:31:04.248Z,3.90
2022-12-28T17:33:35.596Z,4.10
2022-12-28T17:36:05.839Z,3.47
2022-12-28T17:38:32.507Z,3.60
2022-12-28T17:40:59.119Z,3.53
2022-12-28T17:43:31.669Z,3.67
2022-12-28T17:46:01.433Z,3.40
2022-12-28T17:48:30.206Z,3.43
2022-12-28T17:50:58.953Z,3.77
2022-12-28T17:53:25.839Z,3.80
2022-12-28T17:55:52.410Z,3.70
2022-12-28T17:58:18.931Z,3.80
2022-12-28T18:00:45.535Z,3.30
2022-12-28T18:03:12.087Z,4.27
2022-12-28T18:05:38.714Z,3.60
2022-12-28T18:08:05.461Z,3.50
2022-12-28T18:10:32.001Z,3.97
2022-12-28T18:12:58.586Z,3.93
2022-12-28T18:15:29.795Z,3.27
2022-12-28T18:18:00.050Z,3.80
2022-12-28T18:20:26.659Z,3.57
2022-12-28T18:22:53.293Z,3.80
2022-12-28T18:25:19.955Z,3.47
2022-12-28T18:27:46.521Z,3.70
2022-12-28T18:30:13.724Z,3.70
2022-12-28T18:32:40.349Z,3.27
2022-12-28T18:35:07.767Z,3.53
2022-12-28T18:37:34.639Z,3.60
2022-12-28T18:40:01.395Z,3.40
2022-12-28T18:42:27.918Z,3.70
2022-12-28T18:44:54.552Z,3.67
2022-12-28T18:47:21.101Z,4.10
2022-12-28T18:49:48.384Z,3.60
2022-12-28T18:52:15.974Z,3.47
2022-12-28T18:54:42.762Z,3.27
2022-12-28T18:57:09.337Z,3.33
2022-12-28T18:59:35.990Z,3.40
2022-12-28T19:02:07.375Z,3.50
2022-12-28T19:04:35.165Z,3.37
2022-12-28T19:07:01.808Z,3.50
2022-12-28T19:09:28.367Z,4.60
2022-12-28T19:11:55.560Z,4.23
2022-12-28T19:14:22.197Z,5.37
2022-12-28T19:16:48.758Z,4.93
2022-12-28T19:19:17.242Z,4.87
2022-12-28T19:21:43.986Z,3.73
2022-12-28T19:24:15.943Z,3.70
2022-12-28T19:26:42.588Z,4.07
2022-12-28T19:29:11.209Z,3.67
2022-12-28T19:31:37.859Z,3.97
2022-12-28T19:34:04.456Z,3.73
2022-12-28T19:36:31.083Z,4.10
2022-12-28T19:38:57.822Z,3.40
2022-12-28T19:41:24.515Z,3.90
2022-12-28T19:43:51.088Z,3.93
2022-12-28T19:46:22.361Z,3.80
2022-12-28T19:48:52.328Z,3.53
2022-12-28T19:51:18.938Z,3.93
2022-12-28T19:53:45.519Z,3.20
2022-12-28T19:56:13.358Z,3.60
2022-12-28T19:58:40.118Z,4.20
2022-12-28T20:01:11.715Z,3.70
2022-12-28T20:03:38.544Z,3.40
2022-12-28T20:06:12.456Z,3.67
2022-12-28T20:08:39.416Z,3.67
2022-12-28T20:11:06.159Z,4.40
2022-12-28T20:13:33.321Z,3.80
2022-12-28T20:16:00.001Z,4.00
2022-12-28T20:18:26.638Z,3.90
2022-12-28T20:21:18.548Z,4.10
2022-12-28T20:23:39.752Z,3.83
2022-12-28T20:26:06.308Z,3.90
2022-12-28T20:28:32.978Z,3.83
2022-12-28T20:31:01.132Z,3.93
2022-12-28T20:33:27.819Z,4.00
2022-12-28T20:35:58.814Z,3.50
2022-12-28T20:38:25.710Z,4.10
2022-12-28T20:41:05.589Z,3.43
2022-12-28T20:43:32.701Z,3.43
2022-12-28T20:45:59.408Z,3.30
2022-12-28T20:48:26.065Z,3.90
2022-12-28T20:50:59.618Z,3.63
2022-12-28T20:53:27.126Z,2.93
2022-12-28T20:55:53.700Z,3.53
2022-12-28T20:58:20.397Z,3.57
2022-12-28T21:00:46.987Z,3.13
2022-12-28T21:03:13.650Z,3.60
2022-12-28T21:05:40.254Z,3.70
2022-12-28T21:08:06.854Z,3.37
2022-12-28T21:10:33.509Z,3.50
2022-12-28T21:13:00.150Z,3.30
2022-12-28T21:15:26.860Z,3.27
2022-12-28T21:17:53.459Z,3.50
2022-12-28T21:20:20.182Z,3.57
2022-12-28T21:22:46.719Z,3.73
2022-12-28T21:25:13.275Z,3.27
2022-12-28T21:27:39.921Z,3.70
2022-12-28T21:30:07.304Z,3.30
2022-12-28T21:32:33.984Z,3.63
2022-12-28T21:35:00.582Z,4.10
2022-12-28T21:37:36.197Z,3.40
2022-12-28T21:40:04.610Z,3.13
2022-12-28T21:42:31.122Z,3.20
2022-12-28T21:44:57.759Z,3.40
2022-12-28T21:47:24.332Z,3.70
2022-12-28T21:49:50.939Z,3.20
2022-12-28T21:52:17.557Z,3.20
2022-12-28T21:54:45.580Z,3.37
2022-12-28T21:57:12.583Z,3.10
2022-12-28T21:59:39.309Z,3.20
2022-12-28T22:02:36.011Z,3.10
2022-12-28T22:05:21.971Z,3.50
2022-12-28T22:08:09.542Z,3.70
2022-12-28T22:10:56.562Z,3.20
2022-12-28T22:13:23.336Z,3.20
2022-12-28T22:15:52.643Z,3.23
2022-12-28T22:21:07.432Z,3.13
2022-12-28T22:23:34.976Z,3.13
2022-12-28T22:26:01.883Z,3.20
2022-12-28T22:28:28.550Z,3.33
2022-12-28T22:30:55.192Z,3.13
2022-12-28T22:33:21.849Z,2.80
2022-12-28T22:35:48.445Z,3.10
2022-12-28T22:38:14.985Z,3.17
2022-12-28T22:40:41.577Z,2.93
2022-12-28T22:43:08.145Z,2.50
2022-12-28T22:45:34.879Z,3.10
2022-12-28T22:48:01.559Z,2.97
2022-12-28T22:50:28.815Z,2.67
2022-12-28T22:52:55.965Z,2.87
2022-12-28T22:55:22.547Z,2.87
2022-12-28T22:57:49.181Z,2.93
2022-12-28T23:00:16.069Z,3.17
2022-12-28T23:02:43.284Z,3.20
2022-12-28T23:05:10.167Z,2.60
2022-12-28T23:07:38.582Z,2.90
2022-12-28T23:10:07.002Z,2.90
2022-12-28T23:12:33.764Z,3.10
2022-12-28T23:15:19.770Z,2.87
2022-12-28T23:17:49.963Z,3.10
2022-12-28T23:20:35.734Z,3.03
2022-12-28T23:23:20.616Z,2.73
2022-12-28T23:26:05.792Z,3.13
2022-12-28T23:28:32.421Z,3.00
2022-12-28T23:30:59.064Z,3.07
2022-12-28T23:33:25.676Z,3.23
2022-12-28T23:35:52.277Z,2.90
2022-12-28T23:38:19.021Z,2.70
2022-12-28T23:40:45.571Z,2.73
2022-12-28T23:43:12.238Z,2.83
2022-12-28T23:45:38.851Z,2.47
2022-12-28T23:48:05.648Z,2.37
2022-12-28T23:50:32.183Z,2.80
2022-12-28T23:52:58.736Z,3.07
2022-12-28T23:55:25.299Z,2.70
2022-12-28T23:57:51.887Z,2.77
